Time;durP1;ratioP1;P1;durP2;ratioP2;P2;SDS_P1;SDS_P2;PMS_P1;PMS_P2;Temp;Humidity;BMP_temperature;BMP_pressure;BME280_temperature;BME280_humidity;BME280_pressure;Samples;Min_cycle;Max_cycle;Signal;HPM_P1;HPM_P2
2023/08/17 00:01:18;;;;;;;12.68;11.35;;;21.60;99.90;;;;;;5014083;28;20234;-73
2023/08/17 00:03:45;;;;;;;12.55;10.90;;;21.60;99.90;;;;;;5014291;28;20230;-73
2023/08/17 00:06:12;;;;;;;13.02;11.88;;;21.50;99.90;;;;;;5014171;28;20207;-73
2023/08/17 00:08:38;;;;;;;11.80;10.70;;;21.50;99.90;;;;;;5013927;28;20214;-73
2023/08/17 00:11:05;;;;;;;12.45;11.35;;;21.30;99.90;;;;;;5014048;28;20611;-73
2023/08/17 00:13:33;;;;;;;12.05;10.85;;;21.30;99.90;;;;;;5013851;28;20651;-73
2023/08/17 00:15:59;;;;;;;11.15;10.15;;;21.20;99.90;;;;;;5013822;28;20229;-73
2023/08/17 00:18:26;;;;;;;13.50;12.10;;;21.20;99.90;;;;;;5014046;28;20246;-73
2023/08/17 00:20:53;;;;;;;12.23;11.05;;;21.20;99.90;;;;;;5013958;28;20200;-73
2023/08/17 00:23:20;;;;;;;14.05;11.02;;;21.20;99.90;;;;;;5013724;28;20249;-73
2023/08/17 00:25:47;;;;;;;13.05;11.80;;;21.30;99.90;;;;;;5013697;28;20238;-73
2023/08/17 00:28:14;;;;;;;12.43;11.13;;;21.30;99.90;;;;;;5013503;28;20677;-73
2023/08/17 00:30:42;;;;;;;12.90;10.75;;;21.40;99.90;;;;;;5013517;28;20235;-73
2023/08/17 00:33:08;;;;;;;15.57;11.48;;;21.50;99.90;;;;;;5013740;28;20261;-73
2023/08/17 00:35:35;;;;;;;11.88;10.60;;;21.50;99.90;;;;;;5012914;28;20207;-73
2023/08/17 00:38:02;;;;;;;11.32;10.25;;;21.50;99.90;;;;;;5013631;28;20198;-73
2023/08/17 00:40:28;;;;;;;12.20;11.00;;;21.60;99.90;;;;;;5032777;28;20279;-74
2023/08/17 00:42:55;;;;;;;12.25;11.05;;;21.50;99.90;;;;;;5052991;28;20255;-74
2023/08/17 00:45:23;;;;;;;12.73;11.43;;;21.50;99.90;;;;;;5053196;28;20263;-73
2023/08/17 00:47:51;;;;;;;12.02;10.80;;;21.50;99.90;;;;;;5053091;28;20198;-73
2023/08/17 00:50:18;;;;;;;14.82;11.10;;;21.60;99.90;;;;;;5052889;28;20233;-73
2023/08/17 00:52:45;;;;;;;16.88;11.30;;;21.50;99.90;;;;;;5052910;28;20198;-73
2023/08/17 00:55:12;;;;;;;11.75;10.65;;;21.50;99.90;;;;;;5052825;28;20194;-74
2023/08/17 00:57:41;;;;;;;12.52;11.20;;;21.60;99.90;;;;;;5052649;28;20205;-73
2023/08/17 01:00:09;;;;;;;12.18;10.65;;;21.60;99.90;;;;;;5053033;28;20245;-73
2023/08/17 01:02:36;;;;;;;13.02;11.48;;;21.60;99.90;;;;;;5053039;28;20264;-73
2023/08/17 01:05:06;;;;;;;11.77;10.65;;;21.60;99.90;;;;;;5052801;28;20267;-73
2023/08/17 01:07:32;;;;;;;12.75;10.80;;;21.70;99.90;;;;;;5052795;28;20205;-73
2023/08/17 01:09:59;;;;;;;12.40;11.20;;;21.60;99.90;;;;;;5052538;28;20225;-73
2023/08/17 01:12:31;;;;;;;11.73;10.63;;;21.60;99.90;;;;;;5052907;28;20538;-74
2023/08/17 01:15:05;;;;;;;11.43;10.23;;;21.50;99.90;;;;;;5052863;28;20201;-73
2023/08/17 01:17:38;;;;;;;11.63;10.55;;;21.60;99.90;;;;;;5052737;28;20205;-73
2023/08/17 01:20:09;;;;;;;11.95;10.52;;;21.60;99.90;;;;;;5052710;28;20719;-73
2023/08/17 01:22:37;;;;;;;11.77;9.60;;;21.60;99.90;;;;;;5052432;28;20201;-73
2023/08/17 01:25:06;;;;;;;11.60;10.45;;;21.50;99.90;;;;;;5052780;28;20201;-73
2023/08/17 01:27:40;;;;;;;11.88;10.77;;;21.40;99.90;;;;;;5052697;28;20202;-73
2023/08/17 01:30:08;;;;;;;11.35;10.23;;;21.40;99.90;;;;;;5052384;28;20217;-73
2023/08/17 01:32:41;;;;;;;11.95;10.82;;;21.40;99.90;;;;;;5052398;28;20202;-74
2023/08/17 01:35:15;;;;;;;11.38;10.07;;;21.40;99.90;;;;;;5052358;28;20197;-73
2023/08/17 01:37:44;;;;;;;11.43;10.25;;;21.40;99.90;;;;;;5052658;28;20196;-73
2023/08/17 01:40:14;;;;;;;12.32;11.02;;;21.40;99.90;;;;;;5052464;28;20226;-73
2023/08/17 01:42:42;;;;;;;12.65;11.45;;;21.40;99.90;;;;;;5052435;28;20653;-73
2023/08/17 01:45:09;;;;;;;12.20;11.20;;;21.40;99.90;;;;;;5056368;28;20198;-73
2023/08/17 01:47:36;;;;;;;13.88;11.43;;;21.40;99.90;;;;;;5056053;28;20620;-73
2023/08/17 01:50:03;;;;;;;14.15;11.95;;;21.40;99.90;;;;;;5056159;28;20649;-73
2023/08/17 01:52:29;;;;;;;12.57;11.27;;;21.30;99.90;;;;;;5056262;28;20235;-73
2023/08/17 01:54:56;;;;;;;13.88;11.00;;;21.30;99.90;;;;;;5056292;28;20198;-73
2023/08/17 01:57:24;;;;;;;13.02;11.73;;;21.30;99.90;;;;;;5056167;28;20202;-73
2023/08/17 01:59:51;;;;;;;14.13;12.07;;;21.20;99.90;;;;;;5055911;28;20597;-73
2023/08/17 02:02:17;;;;;;;13.98;12.35;;;21.00;99.90;;;;;;5055999;28;20193;-73
2023/08/17 02:04:44;;;;;;;14.15;12.85;;;20.90;99.90;;;;;;5056235;28;20236;-73
2023/08/17 02:07:10;;;;;;;13.80;12.57;;;21.00;99.90;;;;;;5055896;28;20531;-73
2023/08/17 02:09:37;;;;;;;14.48;12.90;;;21.00;99.90;;;;;;5055863;28;20225;-73
2023/08/17 02:12:04;;;;;;;13.95;12.40;;;20.90;99.90;;;;;;5055875;28;20197;-73
2023/08/17 02:14:32;;;;;;;14.38;12.82;;;20.90;99.90;;;;;;5055704;28;20259;-73
2023/08/17 02:16:59;;;;;;;14.32;12.93;;;20.90;99.90;;;;;;5056030;28;20530;-73
2023/08/17 02:19:25;;;;;;;14.30;12.90;;;20.90;99.90;;;;;;5055941;28;20205;-74
2023/08/17 02:21:52;;;;;;;13.85;12.45;;;20.80;99.90;;;;;;5055853;28;20236;-73
2023/08/17 02:24:19;;;;;;;14.05;12.73;;;20.80;99.90;;;;;;5055678;28;20201;-73
2023/08/17 02:26:45;;;;;;;13.88;12.18;;;20.70;99.90;;;;;;5055658;28;20193;-73
2023/08/17 02:29:12;;;;;;;13.80;12.50;;;20.70;99.90;;;;;;5055307;28;20198;-73
2023/08/17 02:31:40;;;;;;;13.65;12.35;;;20.70;99.90;;;;;;5055554;28;20677;-73
2023/08/17 02:34:07;;;;;;;13.75;12.55;;;20.60;99.90;;;;;;5055649;28;20198;-73
2023/08/17 02:36:34;;;;;;;13.13;11.80;;;20.60;99.90;;;;;;5055432;28;20239;-73
2023/08/17 02:39:01;;;;;;;14.30;12.65;;;20.50;99.90;;;;;;5055374;28;20271;-73
2023/08/17 02:41:27;;;;;;;14.18;12.88;;;20.50;99.90;;;;;;5055117;28;20272;-73
2023/08/17 02:43:54;;;;;;;13.80;12.55;;;20.40;99.90;;;;;;5055218;28;20193;-73
2023/08/17 02:46:20;;;;;;;14.23;12.98;;;20.40;99.90;;;;;;5055353;28;20194;-73
2023/08/17 02:48:49;;;;;;;16.05;14.45;;;20.30;99.90;;;;;;5055365;28;20252;-73
2023/08/17 02:51:16;;;;;;;15.43;13.10;;;20.30;99.90;;;;;;5054991;28;20697;-73
2023/08/17 02:53:43;;;;;;;15.60;14.00;;;20.30;99.90;;;;;;5055103;28;20248;-73
2023/08/17 02:56:11;;;;;;;14.85;13.55;;;20.20;99.90;;;;;;5054876;28;20236;-72
2023/08/17 02:58:40;;;;;;;14.18;12.95;;;20.10;99.90;;;;;;5054281;28;20202;-73
2023/08/17 03:01:06;;;;;;;14.93;13.52;;;20.10;99.90;;;;;;5055114;28;20237;-73
2023/08/17 03:03:33;;;;;;;15.10;13.75;;;20.10;99.90;;;;;;5054854;28;20711;-73
2023/08/17 03:06:01;;;;;;;15.30;13.73;;;20.10;99.90;;;;;;5054816;28;20205;-73
2023/08/17 03:08:28;;;;;;;15.88;14.15;;;20.20;99.90;;;;;;5054794;28;20264;-73
2023/08/17 03:10:55;;;;;;;16.92;14.23;;;20.20;99.90;;;;;;5054580;28;20268;-73
2023/08/17 03:13:21;;;;;;;14.20;12.80;;;20.20;99.90;;;;;;5054794;28;20198;-73
2023/08/17 03:15:48;;;;;;;15.00;13.50;;;20.10;99.90;;;;;;5054750;28;20198;-73
2023/08/17 03:18:14;;;;;;;15.82;14.23;;;20.00;99.90;;;;;;5054594;28;20194;-73
2023/08/17 03:20:41;;;;;;;15.05;13.45;;;20.00;99.90;;;;;;5054402;28;20633;-73
2023/08/17 03:23:09;;;;;;;15.18;13.75;;;19.90;99.90;;;;;;5054412;28;20198;-73
2023/08/17 03:25:36;;;;;;;15.20;13.52;;;19.90;99.90;;;;;;5054389;28;20665;-73
2023/08/17 03:28:02;;;;;;;15.52;14.02;;;19.90;99.90;;;;;;5054561;28;20197;-73
2023/08/17 03:30:29;;;;;;;15.52;13.90;;;19.90;99.90;;;;;;5054370;28;20256;-73
2023/08/17 03:32:56;;;;;;;15.18;13.80;;;19.80;99.90;;;;;;5054317;28;20723;-73
2023/08/17 03:35:22;;;;;;;14.75;13.35;;;19.70;99.90;;;;;;5054401;28;20201;-73
2023/08/17 03:37:49;;;;;;;15.30;13.90;;;19.70;99.90;;;;;;5054207;28;20601;-73
2023/08/17 03:40:17;;;;;;;17.02;15.43;;;19.80;99.90;;;;;;5054246;28;20283;-73
2023/08/17 03:42:44;;;;;;;15.13;13.70;;;19.70;99.90;;;;;;5054614;28;20259;-73
2023/08/17 03:45:11;;;;;;;16.15;14.65;;;19.70;99.90;;;;;;5054034;28;20745;-73
2023/08/17 03:47:37;;;;;;;16.80;15.20;;;19.60;99.90;;;;;;5054027;28;20209;-73
2023/08/17 03:50:04;;;;;;;16.80;15.20;;;19.50;99.90;;;;;;5053802;28;20685;-73
2023/08/17 03:52:32;;;;;;;16.23;14.63;;;19.50;99.90;;;;;;5053815;28;20561;-73
2023/08/17 03:54:58;;;;;;;17.20;15.43;;;19.50;99.90;;;;;;5054016;28;20194;-73
2023/08/17 03:57:26;;;;;;;16.50;15.10;;;19.50;99.90;;;;;;5054018;28;20562;-73
2023/08/17 03:59:53;;;;;;;16.35;15.05;;;19.50;99.90;;;;;;5053855;28;20197;-73
2023/08/17 04:02:20;;;;;;;16.55;15.02;;;19.50;99.90;;;;;;5053711;28;20600;-73
2023/08/17 04:04:46;;;;;;;17.08;15.48;;;19.40;99.90;;;;;;5053628;28;20205;-73
2023/08/17 04:07:20;;;;;;;21.08;15.43;;;19.40;99.90;;;;;;5053441;28;20697;-73
2023/08/17 04:09:47;;;;;;;15.88;14.57;;;19.50;99.90;;;;;;5053621;28;20255;-73
2023/08/17 04:12:14;;;;;;;16.05;14.65;;;19.60;99.90;;;;;;5053555;28;20201;-73
2023/08/17 04:14:42;;;;;;;15.98;14.38;;;19.50;99.90;;;;;;5053432;28;20198;-73
2023/08/17 04:17:08;;;;;;;16.20;14.68;;;19.30;99.90;;;;;;5053465;28;20194;-73
2023/08/17 04:19:35;;;;;;;16.23;14.35;;;19.30;99.90;;;;;;5053348;28;20271;-73
2023/08/17 04:22:01;;;;;;;15.73;14.32;;;19.30;99.90;;;;;;5053611;28;20260;-73
2023/08/17 04:24:28;;;;;;;15.30;13.90;;;19.20;99.90;;;;;;5053192;28;20209;-73
2023/08/17 04:26:55;;;;;;;17.08;14.57;;;19.20;99.90;;;;;;5053362;28;20206;-73
2023/08/17 04:29:21;;;;;;;17.20;14.77;;;19.20;99.90;;;;;;5053242;28;20198;-73
2023/08/17 04:31:49;;;;;;;16.90;15.27;;;19.10;99.90;;;;;;5053184;28;20624;-73
2023/08/17 04:34:16;;;;;;;15.90;14.40;;;19.10;99.90;;;;;;5053154;28;20202;-73
2023/08/17 04:36:43;;;;;;;16.02;14.52;;;19.20;99.90;;;;;;5053307;28;20592;-73
2023/08/17 04:39:09;;;;;;;17.63;15.95;;;19.20;99.90;;;;;;5053117;28;20201;-73
2023/08/17 04:41:36;;;;;;;17.17;15.38;;;19.20;99.90;;;;;;5052925;28;20232;-73
2023/08/17 04:44:03;;;;;;;16.52;15.13;;;19.20;99.90;;;;;;5052944;28;20536;-73
2023/08/17 04:46:30;;;;;;;17.10;15.60;;;19.30;99.90;;;;;;5052916;28;20634;-73
2023/08/17 04:48:58;;;;;;;16.25;14.85;;;19.30;99.90;;;;;;5052954;28;20719;-73
2023/08/17 04:51:24;;;;;;;16.25;14.80;;;19.30;99.90;;;;;;5052943;28;20225;-73
2023/08/17 04:53:51;;;;;;;16.02;14.38;;;19.40;99.90;;;;;;5052700;28;20615;-73
2023/08/17 04:56:18;;;;;;;16.35;14.82;;;19.40;99.90;;;;;;5052819;28;20625;-73
2023/08/17 04:58:45;;;;;;;15.95;14.40;;;19.50;99.90;;;;;;5052803;28;20205;-73
2023/08/17 05:01:11;;;;;;;16.30;14.80;;;19.60;99.90;;;;;;5052592;28;20224;-73
2023/08/17 05:03:38;;;;;;;15.80;13.50;;;19.70;99.90;;;;;;5052662;28;21192;-73
2023/08/17 05:06:06;;;;;;;15.05;13.30;;;19.80;99.90;;;;;;5052823;28;20201;-73
2023/08/17 05:08:32;;;;;;;13.63;12.43;;;19.80;99.90;;;;;;5052649;28;20248;-73
2023/08/17 05:10:59;;;;;;;14.02;12.35;;;19.90;99.90;;;;;;5052611;28;20221;-73
2023/08/17 05:13:25;;;;;;;14.77;13.18;;;19.90;99.90;;;;;;5052693;28;20251;-73
2023/08/17 05:15:52;;;;;;;13.40;12.20;;;20.00;99.90;;;;;;5052692;28;20201;-73
2023/08/17 05:18:19;;;;;;;13.75;12.45;;;20.00;99.90;;;;;;5052756;28;20604;-73
2023/08/17 05:20:45;;;;;;;12.73;11.73;;;20.10;99.90;;;;;;5054907;28;20201;-73
2023/08/17 05:23:13;;;;;;;12.77;11.55;;;20.10;99.90;;;;;;5059225;28;20205;-73
2023/08/17 05:25:40;;;;;;;12.35;10.55;;;20.20;99.90;;;;;;5059200;28;20251;-73
2023/08/17 05:28:06;;;;;;;11.90;10.90;;;20.30;99.90;;;;;;5059030;28;20255;-73
2023/08/17 05:30:33;;;;;;;12.68;11.48;;;20.30;99.90;;;;;;5059050;28;20612;-73
2023/08/17 05:33:00;;;;;;;12.70;11.60;;;20.50;99.90;;;;;;5059102;28;20649;-73
2023/08/17 05:35:27;;;;;;;12.95;11.65;;;20.50;99.90;;;;;;5059333;28;20263;-73
2023/08/17 05:37:53;;;;;;;12.55;10.98;;;20.60;99.90;;;;;;5059193;28;20247;-73
2023/08/17 05:40:21;;;;;;;11.68;10.48;;;20.70;99.90;;;;;;5058940;28;20767;-73
2023/08/17 05:42:48;;;;;;;12.00;10.90;;;20.80;99.90;;;;;;5058996;28;20202;-73
2023/08/17 05:45:14;;;;;;;11.57;10.40;;;20.80;99.90;;;;;;5059337;28;20198;-73
2023/08/17 05:47:41;;;;;;;12.05;10.80;;;20.90;99.90;;;;;;5059175;28;20201;-73
2023/08/17 05:50:08;;;;;;;12.23;10.77;;;20.90;99.90;;;;;;5059179;28;20224;-73
2023/08/17 05:52:35;;;;;;;12.07;10.98;;;21.00;99.90;;;;;;5058967;28;20225;-73
2023/08/17 05:55:02;;;;;;;12.40;11.15;;;21.00;99.90;;;;;;5059028;28;20611;-73
2023/08/17 05:57:30;;;;;;;11.93;10.80;;;21.10;99.90;;;;;;5058973;28;20255;-73
2023/08/17 05:59:56;;;;;;;12.27;10.93;;;21.20;99.90;;;;;;5059169;28;20197;-75
2023/08/17 06:02:23;;;;;;;12.82;11.10;;;21.30;99.90;;;;;;5059106;28;20208;-73
2023/08/17 06:04:50;;;;;;;12.35;10.57;;;21.40;99.90;;;;;;5059136;28;20197;-73
2023/08/17 06:07:16;;;;;;;12.52;11.25;;;21.50;99.90;;;;;;5059139;28;20559;-73
2023/08/17 06:09:43;;;;;;;13.40;12.07;;;21.50;99.90;;;;;;5058923;28;20247;-73
2023/08/17 06:12:09;;;;;;;11.73;10.63;;;21.60;99.90;;;;;;5058771;28;20233;-73
2023/08/17 06:14:37;;;;;;;12.00;10.80;;;21.60;99.90;;;;;;5059140;28;20255;-73
2023/08/17 06:17:04;;;;;;;11.88;10.85;;;21.70;99.90;;;;;;5059057;28;20259;-72
2023/08/17 06:19:31;;;;;;;13.25;12.05;;;21.80;99.90;;;;;;5058870;28;20649;-72
2023/08/17 06:21:58;;;;;;;12.38;11.25;;;21.90;99.90;;;;;;5058745;28;20197;-73
2023/08/17 06:24:24;;;;;;;13.30;11.85;;;22.00;99.90;;;;;;5058721;28;20648;-74
2023/08/17 06:26:51;;;;;;;13.02;11.63;;;22.10;99.90;;;;;;5058639;28;20202;-73
2023/08/17 06:29:17;;;;;;;11.95;10.85;;;22.20;99.90;;;;;;5058895;28;20201;-72
2023/08/17 06:31:45;;;;;;;14.43;11.65;;;22.30;99.90;;;;;;5057840;28;20225;-73
2023/08/17 06:34:12;;;;;;;14.30;12.85;;;22.40;99.90;;;;;;5054775;28;20205;-73
2023/08/17 06:36:39;;;;;;;12.63;11.43;;;22.40;99.90;;;;;;5055473;28;20730;-73
2023/08/17 06:39:06;;;;;;;14.02;12.52;;;22.60;99.90;;;;;;5055332;28;20202;-72
2023/08/17 06:41:32;;;;;;;14.75;11.50;;;22.70;99.90;;;;;;5055336;28;20283;-73
2023/08/17 06:43:59;;;;;;;11.75;10.75;;;22.80;99.90;;;;;;5055428;28;20251;-72
2023/08/17 06:46:27;;;;;;;11.90;10.55;;;23.00;99.90;;;;;;5055360;28;20197;-73
2023/08/17 06:48:55;;;;;;;12.32;11.20;;;23.00;99.90;;;;;;5055224;28;20209;-72
2023/08/17 06:51:22;;;;;;;11.77;10.68;;;23.10;99.90;;;;;;5055139;28;20225;-73
2023/08/17 06:53:49;;;;;;;12.80;11.13;;;23.10;99.90;;;;;;5055014;28;20596;-73
2023/08/17 06:56:15;;;;;;;13.30;11.40;;;23.20;99.90;;;;;;5055057;28;20202;-73
2023/08/17 06:58:42;;;;;;;12.82;11.65;;;23.30;99.90;;;;;;5055158;28;20231;-73
2023/08/17 07:01:08;;;;;;;11.70;10.57;;;23.30;99.90;;;;;;5055022;28;20202;-72
2023/08/17 07:03:35;;;;;;;11.38;10.25;;;23.40;99.90;;;;;;5054904;28;20255;-73
2023/08/17 07:06:03;;;;;;;12.02;10.85;;;23.50;99.90;;;;;;5054959;28;20209;-72
2023/08/17 07:08:30;;;;;;;12.85;11.02;;;23.70;99.90;;;;;;5054781;28;20201;-73
2023/08/17 07:10:57;;;;;;;13.13;11.27;;;23.70;99.90;;;;;;5054930;28;20202;-74
2023/08/17 07:13:23;;;;;;;11.20;10.30;;;23.70;99.90;;;;;;5054992;28;20542;-73
2023/08/17 07:15:50;;;;;;;11.75;10.57;;;23.80;99.90;;;;;;5054783;28;20202;-73
2023/08/17 07:18:16;;;;;;;11.70;10.50;;;24.00;99.90;;;;;;5054594;28;20228;-73
2023/08/17 07:20:43;;;;;;;11.65;10.65;;;24.20;99.90;;;;;;5054645;28;20198;-73
2023/08/17 07:23:11;;;;;;;11.35;10.20;;;24.40;99.90;;;;;;5054528;28;20198;-74
2023/08/17 07:25:38;;;;;;;11.45;10.25;;;24.70;99.90;;;;;;5054741;28;20543;-73
2023/08/17 07:28:05;;;;;;;10.90;10.00;;;24.70;99.90;;;;;;5054645;28;20198;-73
2023/08/17 07:30:32;;;;;;;11.10;10.00;;;25.00;99.90;;;;;;5054440;28;20661;-73
2023/08/17 07:32:58;;;;;;;11.88;10.73;;;25.10;99.90;;;;;;5054309;28;20573;-74
2023/08/17 07:35:25;;;;;;;10.73;9.73;;;25.10;99.90;;;;;;5054335;28;20255;-73
2023/08/17 07:37:51;;;;;;;10.45;9.55;;;25.30;99.90;;;;;;5054564;28;20274;-74
2023/08/17 07:40:19;;;;;;;11.43;10.25;;;25.40;99.90;;;;;;5054208;28;20233;-74
2023/08/17 07:42:46;;;;;;;11.30;9.65;;;25.60;99.90;;;;;;5054306;28;20193;-74
2023/08/17 07:45:13;;;;;;;11.00;10.10;;;25.80;99.90;;;;;;5053834;28;20200;-73
2023/08/17 07:47:40;;;;;;;11.07;10.07;;;25.90;99.90;;;;;;5054107;28;20197;-73
2023/08/17 07:50:07;;;;;;;11.35;10.25;;;25.90;99.90;;;;;;5054079;28;20202;-73
2023/08/17 07:52:34;;;;;;;10.02;9.23;;;26.10;99.90;;;;;;5054159;28;20295;-73
2023/08/17 07:55:00;;;;;;;9.93;9.10;;;26.20;99.90;;;;;;5054201;28;20198;-73
2023/08/17 07:57:28;;;;;;;10.15;9.35;;;26.40;99.90;;;;;;5054108;28;20259;-73
2023/08/17 07:59:55;;;;;;;10.65;9.63;;;26.40;99.90;;;;;;5053948;28;20201;-73
2023/08/17 08:02:21;;;;;;;11.20;10.00;;;26.50;99.90;;;;;;5053834;28;20272;-73
2023/08/17 08:04:48;;;;;;;12.35;9.73;;;26.50;99.90;;;;;;5053681;28;20275;-73
2023/08/17 08:07:15;;;;;;;10.35;9.35;;;26.60;99.90;;;;;;5054015;28;20247;-74
2023/08/17 08:09:41;;;;;;;13.57;9.48;;;26.80;99.90;;;;;;5053812;28;20201;-73
2023/08/17 08:12:08;;;;;;;10.90;9.77;;;26.90;99.90;;;;;;5053718;28;20226;-73
2023/08/17 08:14:36;;;;;;;13.50;10.18;;;26.80;99.90;;;;;;5053711;28;20236;-75
2023/08/17 08:17:03;;;;;;;10.98;9.93;;;26.80;99.90;;;;;;5053403;28;20198;-72
2023/08/17 08:19:30;;;;;;;10.10;9.10;;;27.00;99.90;;;;;;5053709;28;20201;-72
2023/08/17 08:21:56;;;;;;;9.32;8.43;;;27.20;99.90;;;;;;5053356;28;20208;-72
2023/08/17 08:24:23;;;;;;;10.38;9.57;;;27.50;99.90;;;;;;5053555;28;20253;-72
2023/08/17 08:26:50;;;;;;;9.50;8.60;;;27.60;99.90;;;;;;5053459;28;20267;-73
2023/08/17 08:29:17;;;;;;;10.30;9.35;;;27.80;99.90;;;;;;5053353;28;20193;-73
2023/08/17 08:31:45;;;;;;;10.10;9.15;;;27.90;99.90;;;;;;5053257;28;20271;-74
2023/08/17 08:34:12;;;;;;;10.15;9.15;;;28.10;99.90;;;;;;5053501;28;20194;-74
2023/08/17 08:36:38;;;;;;;9.70;8.90;;;28.30;99.90;;;;;;5053512;28;20256;-74
2023/08/17 08:39:05;;;;;;;10.27;9.35;;;28.40;99.90;;;;;;5053294;28;20243;-73
2023/08/17 08:41:33;;;;;;;10.07;9.18;;;28.60;99.90;;;;;;5053014;28;20241;-74
2023/08/17 08:43:59;;;;;;;10.23;9.13;;;28.70;99.90;;;;;;5053128;28;20604;-74
2023/08/17 08:46:30;;;;;;;9.45;8.43;;;29.00;99.90;;;;;;5053101;28;20255;-74
2023/08/17 08:48:58;;;;;;;10.98;9.73;;;29.40;99.90;;;;;;5053204;28;20202;-72
2023/08/17 08:51:28;;;;;;;10.43;9.52;;;29.50;99.90;;;;;;5053041;28;20255;-74
2023/08/17 08:54:03;;;;;;;11.00;10.00;;;29.50;99.90;;;;;;5053097;28;20197;-74
2023/08/17 08:56:32;;;;;;;10.77;9.77;;;29.50;99.90;;;;;;5052360;28;20636;-74
2023/08/17 08:59:02;;;;;;;9.93;8.93;;;29.30;99.90;;;;;;5052896;28;20202;-72
2023/08/17 09:01:31;;;;;;;9.75;8.82;;;29.40;99.90;;;;;;5052804;28;20597;-72
2023/08/17 09:03:59;;;;;;;9.98;8.77;;;29.70;99.90;;;;;;5052583;28;20594;-74
2023/08/17 09:06:27;;;;;;;10.20;9.25;;;30.00;99.90;;;;;;5052662;28;20653;-72
2023/08/17 09:08:54;;;;;;;9.40;8.40;;;30.40;99.90;;;;;;5052579;28;20243;-74
2023/08/17 09:11:21;;;;;;;9.77;8.93;;;30.20;99.90;;;;;;5052454;28;20252;-74
2023/08/17 09:13:48;;;;;;;10.20;8.38;;;30.30;99.90;;;;;;5052766;28;20251;-74
2023/08/17 09:16:14;;;;;;;9.68;8.88;;;30.40;99.90;;;;;;5052456;28;20646;-74
2023/08/17 09:18:41;;;;;;;9.65;8.38;;;30.40;99.90;;;;;;5052457;28;20711;-74
2023/08/17 09:21:10;;;;;;;8.68;7.93;;;30.90;99.90;;;;;;5052669;28;20194;-74
2023/08/17 09:23:40;;;;;;;8.90;8.02;;;31.10;99.90;;;;;;5052456;28;20205;-74
2023/08/17 09:26:09;;;;;;;9.15;8.23;;;31.40;99.90;;;;;;5052442;28;20654;-74
2023/08/17 09:28:40;;;;;;;10.45;8.63;;;31.70;99.90;;;;;;5052579;28;20259;-74
2023/08/17 09:31:06;;;;;;;8.10;7.50;;;32.00;99.90;;;;;;5052627;28;20202;-74
2023/08/17 09:33:34;;;;;;;8.38;7.55;;;32.20;99.90;;;;;;5052239;28;20704;-74
2023/08/17 09:36:01;;;;;;;10.75;8.25;;;32.40;99.90;;;;;;5052336;28;20650;-74
2023/08/17 09:38:29;;;;;;;9.02;8.23;;;32.60;99.90;;;;;;5052321;28;20204;-74
2023/08/17 09:40:57;;;;;;;8.70;7.80;;;32.80;99.90;;;;;;5052185;28;20230;-74
2023/08/17 09:43:27;;;;;;;8.05;7.30;;;32.70;99.90;;;;;;5052389;28;20197;-74
2023/08/17 09:45:55;;;;;;;8.05;7.35;;;32.80;99.90;;;;;;5052401;28;20202;-74
2023/08/17 09:48:22;;;;;;;8.48;7.63;;;33.20;99.90;;;;;;5052363;28;20217;-74
2023/08/17 09:50:49;;;;;;;8.50;7.70;;;33.20;99.90;;;;;;5052198;28;20275;-74
2023/08/17 09:53:17;;;;;;;8.18;7.50;;;33.30;99.90;;;;;;5052363;28;20247;-74
2023/08/17 09:55:46;;;;;;;8.43;7.75;;;32.90;99.90;;;;;;5052242;28;20197;-74
2023/08/17 09:58:14;;;;;;;7.50;7.00;;;33.30;99.90;;;;;;5052139;28;20209;-74
2023/08/17 10:00:45;;;;;;;7.15;6.65;;;33.00;99.90;;;;;;5052248;28;20194;-74
2023/08/17 10:03:14;;;;;;;7.72;7.00;;;33.50;99.90;;;;;;5052194;28;20232;-74
2023/08/17 10:05:43;;;;;;;9.20;7.20;;;33.80;99.90;;;;;;5052012;28;20205;-74
2023/08/17 10:08:11;;;;;;;7.80;6.47;;;34.00;99.90;;;;;;5055093;28;20205;-74
2023/08/17 10:10:41;;;;;;;7.43;6.47;;;34.50;99.90;;;;;;5055938;28;20247;-74
2023/08/17 10:13:10;;;;;;;7.40;6.70;;;35.00;99.90;;;;;;5055793;28;20580;-74
2023/08/17 10:15:42;;;;;;;7.10;6.50;;;34.70;99.90;;;;;;5055812;28;20201;-74
2023/08/17 10:18:15;;;;;;;7.03;6.38;;;34.60;99.90;;;;;;5055902;28;20201;-74
2023/08/17 10:20:46;;;;;;;7.15;6.45;;;34.80;99.90;;;;;;5055920;28;20201;-74
2023/08/17 10:23:17;;;;;;;7.32;6.50;;;34.80;98.90;;;;;;5055708;28;20267;-74
2023/08/17 10:25:45;;;;;;;7.07;6.05;;;35.40;98.40;;;;;;5055560;28;20201;-75
2023/08/17 10:28:13;;;;;;;8.95;6.25;;;35.60;97.60;;;;;;5055460;28;20201;-74
2023/08/17 10:30:40;;;;;;;6.38;5.80;;;35.70;97.00;;;;;;5055538;28;20621;-75
2023/08/17 10:33:07;;;;;;;8.38;6.10;;;36.50;96.60;;;;;;5055571;28;20229;-75
2023/08/17 10:35:35;;;;;;;6.25;5.75;;;37.00;95.70;;;;;;5055432;28;20197;-75
2023/08/17 10:38:04;;;;;;;7.03;5.90;;;37.30;95.00;;;;;;5055265;28;20678;-74
2023/08/17 10:40:37;;;;;;;6.25;5.75;;;37.30;93.60;;;;;;5055354;28;20225;-75
2023/08/17 10:43:04;;;;;;;6.13;5.63;;;36.90;92.80;;;;;;5055306;28;20243;-75
2023/08/17 10:45:34;;;;;;;6.25;5.65;;;36.90;93.30;;;;;;5055587;28;20205;-75
2023/08/17 10:48:17;;;;;;;5.65;5.15;;;37.80;92.30;;;;;;5055477;28;20288;-75
2023/08/17 10:51:00;;;;;;;6.40;5.80;;;37.40;89.30;;;;;;5055124;28;20215;-75
2023/08/17 10:53:27;;;;;;;8.18;5.70;;;36.90;89.40;;;;;;5054978;28;20231;-75
2023/08/17 10:55:58;;;;;;;6.82;5.93;;;37.70;87.60;;;;;;5055205;28;20204;-74
2023/08/17 10:58:25;;;;;;;8.38;6.20;;;37.70;89.10;;;;;;5055051;28;20197;-75
2023/08/17 11:00:56;;;;;;;6.60;6.00;;;38.90;87.50;;;;;;5055101;28;20201;-74
2023/08/17 11:03:24;;;;;;;6.78;5.20;;;39.10;86.00;;;;;;5054973;28;20202;-75
2023/08/17 11:05:53;;;;;;;6.60;5.88;;;39.80;84.20;;;;;;5054742;28;20272;-75
2023/08/17 11:08:24;;;;;;;6.63;5.57;;;40.00;80.80;;;;;;5054998;28;20254;-75
2023/08/17 11:10:59;;;;;;;8.45;5.55;;;40.30;80.40;;;;;;5054894;28;20200;-75
2023/08/17 11:13:28;;;;;;;6.55;5.95;;;39.70;74.60;;;;;;5054843;28;20235;-74
2023/08/17 11:15:56;;;;;;;6.10;5.70;;;38.00;76.50;;;;;;5054817;28;20565;-76
2023/08/17 11:18:23;;;;;;;7.15;5.60;;;38.70;74.20;;;;;;5053814;28;20267;-74
2023/08/17 11:20:51;;;;;;;6.60;6.00;;;36.70;76.40;;;;;;5054797;28;20197;-74
2023/08/17 11:23:18;;;;;;;7.50;6.70;;;36.00;75.20;;;;;;5054733;28;20203;-74
2023/08/17 11:25:44;;;;;;;8.07;7.03;;;35.00;78.70;;;;;;5054600;28;20255;-74
2023/08/17 11:28:13;;;;;;;7.40;6.78;;;35.00;82.70;;;;;;5054573;28;20198;-74
2023/08/17 11:30:40;;;;;;;7.30;6.50;;;35.60;82.30;;;;;;5054386;28;20727;-74
2023/08/17 11:33:08;;;;;;;6.70;6.00;;;36.50;78.20;;;;;;5054145;28;20217;-74
2023/08/17 11:35:35;;;;;;;6.88;6.18;;;36.50;75.30;;;;;;5054379;28;20668;-74
2023/08/17 11:38:03;;;;;;;7.47;6.43;;;36.00;74.60;;;;;;5054298;28;20723;-74
2023/08/17 11:40:29;;;;;;;6.20;5.72;;;35.80;76.00;;;;;;5054240;28;20225;-74
2023/08/17 11:42:56;;;;;;;7.10;6.40;;;36.20;75.50;;;;;;5054307;28;20197;-74
2023/08/17 11:45:24;;;;;;;6.45;5.95;;;36.70;71.40;;;;;;5054053;28;20201;-74
2023/08/17 11:47:52;;;;;;;6.65;6.05;;;36.30;70.70;;;;;;5054375;28;20202;-74
2023/08/17 11:50:20;;;;;;;7.20;6.50;;;36.60;72.50;;;;;;5054276;28;20200;-74
2023/08/17 11:52:46;;;;;;;6.50;5.97;;;37.40;71.00;;;;;;5054060;28;20231;-74
2023/08/17 11:55:18;;;;;;;6.13;5.53;;;37.50;69.70;;;;;;5054049;28;20722;-74
2023/08/17 11:57:45;;;;;;;6.30;5.68;;;38.70;66.90;;;;;;5053965;28;20236;-74
2023/08/17 12:00:18;;;;;;;5.95;5.53;;;37.90;64.30;;;;;;5053928;28;20251;-74
2023/08/17 12:02:48;;;;;;;6.75;6.25;;;36.00;66.60;;;;;;5054063;28;20610;-74
2023/08/17 12:05:19;;;;;;;9.40;6.57;;;36.40;70.10;;;;;;5053902;28;20201;-74
2023/08/17 12:07:47;;;;;;;6.20;5.80;;;37.10;71.00;;;;;;5053879;28;20219;-74
2023/08/17 12:10:14;;;;;;;6.88;6.18;;;38.50;69.40;;;;;;5053637;28;20197;-74
2023/08/17 12:12:40;;;;;;;8.18;5.93;;;38.80;66.80;;;;;;5053487;28;20266;-74
2023/08/17 12:15:10;;;;;;;6.65;5.50;;;38.90;65.00;;;;;;5053611;28;20720;-74
2023/08/17 12:17:37;;;;;;;5.90;5.40;;;38.40;64.30;;;;;;5053579;28;20201;-74
2023/08/17 12:20:04;;;;;;;6.20;5.70;;;39.10;61.70;;;;;;5053679;28;20197;-75
2023/08/17 12:22:31;;;;;;;6.10;5.50;;;39.70;62.00;;;;;;5053498;28;20193;-75
2023/08/17 12:24:59;;;;;;;6.43;5.82;;;39.70;60.70;;;;;;5053429;28;20201;-74
2023/08/17 12:27:25;;;;;;;5.50;5.10;;;40.10;60.00;;;;;;5053571;28;20251;-75
2023/08/17 12:29:52;;;;;;;5.70;5.30;;;40.90;58.00;;;;;;5053011;28;20197;-75
2023/08/17 12:32:20;;;;;;;5.78;5.28;;;42.40;55.70;;;;;;5052923;28;20215;-75
2023/08/17 12:34:48;;;;;;;5.32;4.93;;;43.50;53.60;;;;;;5053228;28;20193;-72